Latest Weather Observations for Point Avoid

IDS60801

Issued at 11:21 pm CST Friday 23 April 2021 (issued every 10 minutes, with the page automatically refreshed every 10 minutes)

About weather observations | Map of weather stations | Latest weather observations for SA | Other Formats
Station Details ID: 018230 Name: POINT AVOID Lat: -34.67 Lon: 135.34 Height: 35.0 m
Data from the previous 72 hours. | See also: Recent months at Point Avoid
Date/Time
CST
Temp
°C
App
Temp
°C
Dew
Point
°C
Rel
Hum
%
Delta-T
°C
Wind Press
QNH
hPa
Press
MSL
hPa
Rain since
9am
mm
Dir  Spd
km/h
Gust
km/h
Spd
kts
Gust
kts
23/11:00pm 15.6 14.5 10.8 73 2.6 SW 7 15 4 8 1024.5 1024.4 0.0
23/10:30pm 15.3 14.4 11.5 78 2.0 SW 7 11 4 6 1024.6 1024.5 0.0
23/10:00pm 14.7 13.7 10.9 78 2.0 SW 7 11 4 6 1024.4 1024.3 0.0
23/09:30pm 15.6 13.9 11.2 75 2.3 WSW 11 17 6 9 1024.4 1024.3 0.0
23/09:00pm 15.5 13.9 11.5 77 2.1 SW 11 15 6 8 1024.1 1024.0 0.0
23/08:30pm 15.4 14.3 12.0 80 1.8 SW 9 13 5 7 1024.0 1023.9 0.0
23/08:00pm 15.2 14.3 12.7 85 1.4 SW 9 13 5 7 1023.8 1023.7 0.0
23/07:30pm 15.8 15.1 13.3 85 1.4 SW 9 13 5 7 1023.5 1023.4 0.0
23/07:00pm 15.7 15.3 13.0 84 1.5 WSW 7 11 4 6 1023.1 1023.0 0.0
23/06:30pm 15.4 15.0 12.5 83 1.6 WSW 6 9 3 5 1022.8 1022.7 0.0
23/06:00pm 14.9 14.3 11.7 81 1.7 WSW 6 7 3 4 1022.6 1022.5 0.0
23/05:30pm 16.1 15.4 12.1 77 2.2 WSW 7 11 4 6 1022.5 1022.4 0.0
23/05:00pm 17.0 16.0 12.3 74 2.6 WSW 9 13 5 7 1022.3 1022.2 0.0
23/04:30pm 17.1 16.1 12.2 73 2.7 WSW 9 13 5 7 1022.3 1022.2 0.0
23/04:00pm 17.9 16.5 12.1 69 3.2 SW 11 17 6 9 1022.2 1022.1 0.0
23/03:30pm 17.4 15.6 12.1 71 2.9 SW 13 17 7 9 1022.2 1022.1 0.0
23/03:00pm 18.0 16.2 12.2 69 3.2 SW 13 17 7 9 1022.0 1021.9 0.0
23/02:30pm 18.1 17.2 12.5 70 3.1 SW 9 15 5 8 1022.0 1021.9 0.0
23/02:00pm 18.5 16.8 12.3 67 3.4 SW 13 17 7 9 1022.1 1022.0 0.0
23/01:30pm 18.0 16.5 11.8 67 3.4 SSW 11 15 6 8 1022.0 1021.9 0.0
23/01:00pm 17.6 15.9 11.2 66 3.5 SW 11 19 6 10 1022.2 1022.1 0.0
23/12:30pm 18.3 16.3 11.4 64 3.8 SSW 13 17 7 9 1022.4 1022.3 0.0
23/12:00pm 18.4 16.4 11.5 64 3.8 SSW 13 20 7 11 1022.8 1022.7 0.0
23/11:30am 17.8 16.8 12.3 70 3.0 WSW 9 17 5 9 1022.9 1022.8 0.0
23/11:00am 17.4 16.0 12.3 72 2.8 SSW 11 20 6 11 1023.2 1023.1 0.0
23/10:30am 17.5 16.0 13.2 76 2.4 SW 13 20 7 11 1023.2 1023.1 0.0
23/10:00am 17.1 15.1 12.6 75 2.5 SW 15 19 8 10 1023.2 1023.1 0.0
23/09:30am 16.6 14.9 13.7 83 1.6 SW 15 19 8 10 1023.1 1023.0 0.0
23/09:00am 15.8 14.2 13.8 88 1.1 S 15 19 8 10 1022.9 1022.8 0.6
23/08:30am 14.5 12.1 13.7 95 0.4 SSW 19 24 10 13 1022.6 1022.5 0.6
23/08:00am 14.6 14.3 14.4 99 0.1 S 9 13 5 7 1022.3 1022.2 0.6
23/07:30am 14.4 13.3 14.4 100 0.0 S 13 17 7 9 1021.9 1021.8 0.6
23/07:00am 13.7 12.2 13.1 96 0.3 SSW 13 17 7 9 1021.5 1021.4 0.6
23/06:30am 14.1 12.1 13.8 98 0.2 SSW 17 20 9 11 1021.5 1021.4 0.6
23/06:00am 14.3 14.0 14.3 100 0.0 SSW 9 19 5 10 1021.3 1021.2 0.6
23/05:30am 13.9 14.4 13.9 100 0.0 W 4 7 2 4 1021.1 1021.0 0.6
23/05:00am 14.0 13.2 14.0 100 0.0 WSW 11 19 6 10 1021.0 1020.9 0.4
23/04:30am 13.9 12.9 13.4 97 0.3 SSW 11 26 6 14 1020.8 1020.7 0.2
23/04:00am 14.2 12.5 13.6 96 0.3 SSW 15 19 8 10 1020.7 1020.6 0.2
23/03:30am 14.0 12.0 13.8 99 0.1 SW 17 20 9 11 1020.8 1020.7 0.2
23/03:00am 14.0 12.3 13.7 98 0.2 SSW 15 19 8 10 1020.8 1020.7 0.2
23/02:30am 14.0 12.7 13.8 99 0.1 SSW 13 15 7 8 1020.8 1020.7 0.2
23/02:00am 14.8 13.7 14.2 96 0.3 SW 13 20 7 11 1020.7 1020.6 0.2
23/01:30am 14.3 13.1 12.7 90 0.9 WSW 11 13 6 7 1020.7 1020.6 0.2
23/01:00am 14.5 13.5 13.4 93 0.6 SW 11 15 6 8 1020.9 1020.8 0.2
23/12:30am 14.7 12.0 13.4 92 0.7 SW 20 28 11 15 1020.8 1020.7 0.2
23/12:00am 15.3 13.3 14.0 92 0.7 SW 17 26 9 14 1020.7 1020.6 0.2
 
Date/Time
CST
Temp
°C
App
Temp
°C
Dew
Point
°C
Rel
Hum
%
Delta-T
°C
Wind Press
QNH
hPa
Press
MSL
hPa
Rain since
9am
mm
Dir  Spd
km/h
Gust
km/h
Spd
kts
Gust
kts
22/11:30pm 15.0 12.7 14.0 94 0.6 SW 19 26 10 14 1020.9 1020.8 0.2
22/11:00pm 14.9 14.2 13.3 90 0.9 SW 9 13 5 7 1021.0 1020.9 0.2
22/10:30pm 15.2 13.3 14.2 94 0.6 SW 17 24 9 13 1021.1 1021.0 0.2
22/10:00pm 15.1 13.8 12.4 84 1.5 WSW 11 17 6 9 1021.0 1020.9 0.2
22/09:30pm 14.9 13.1 12.2 84 1.5 SW 13 17 7 9 1021.1 1021.0 0.2
22/09:00pm 15.4 13.9 13.1 86 1.3 SW 13 19 7 10 1021.0 1020.9 0.2
22/08:30pm 15.4 13.6 13.4 88 1.1 WSW 15 20 8 11 1021.0 1020.9 0.2
22/08:00pm 15.3 13.8 13.0 86 1.3 WSW 13 19 7 10 1020.8 1020.7 0.2
22/07:30pm 15.6 13.0 13.1 85 1.4 WSW 19 24 10 13 1020.6 1020.5 0.2
22/07:00pm 15.6 12.0 12.9 84 1.5 WSW 24 30 13 16 1020.4 1020.3 0.2
22/06:30pm 16.0 13.0 12.7 81 1.8 WSW 20 26 11 14 1020.1 1020.0 0.2
22/06:00pm 16.3 14.3 12.7 79 2.0 WSW 15 24 8 13 1019.7 1019.6 0.2
22/05:30pm 16.4 13.2 11.3 72 2.7 WSW 19 26 10 14 1019.6 1019.5 0.2
22/05:00pm 16.2 13.3 12.2 77 2.2 WSW 19 24 10 13 1019.5 1019.4 0.2
22/04:30pm 16.5 13.7 12.7 78 2.1 WSW 19 32 10 17 1019.4 1019.3 0.2
22/04:00pm 16.9 13.8 12.2 74 2.6 WSW 20 26 11 14 1019.3 1019.2 0.2
22/03:30pm 17.8 14.6 13.1 74 2.6 WSW 22 28 12 15 1019.2 1019.1 0.2
22/03:00pm 17.7 14.8 12.4 71 2.9 WSW 19 24 10 13 1019.0 1018.9 0.2
22/02:30pm 16.9 13.9 12.4 75 2.5 WSW 20 28 11 15 1018.9 1018.8 0.2
22/02:00pm 18.6 15.7 12.4 67 3.5 WSW 19 24 10 13 1018.8 1018.7 0.2
22/01:30pm 17.4 15.9 13.1 76 2.4 W 13 19 7 10 1018.9 1018.8 0.2
22/01:00pm 16.3 13.5 13.2 82 1.7 SW 20 32 11 17 1019.1 1019.0 0.2
22/12:30pm 17.7 15.6 13.6 77 2.3 W 17 20 9 11 1019.4 1019.3 0.2
22/12:00pm 16.8 13.5 12.9 78 2.2 W 22 28 12 15 1019.7 1019.6 0.2
22/11:30am 17.5 14.6 13.0 75 2.5 WSW 20 32 11 17 1019.7 1019.6 0.2
22/11:00am 18.4 15.6 12.6 69 3.2 SW 19 24 10 13 1019.7 1019.6 0.0
22/10:30am 17.2 15.3 11.9 71 2.9 W 13 17 7 9 1019.7 1019.6 0.0
22/10:00am 15.9 11.4 12.6 81 1.8 WSW 28 39 15 21 1019.8 1019.7 0.0
22/09:30am 16.6 13.4 12.0 74 2.5 WSW 20 26 11 14 1019.6 1019.5 0.0
22/09:00am 16.8 13.6 11.3 70 3.0 SW 19 24 10 13 1019.5 1019.4 1.6
22/08:30am 16.2 12.8 10.7 70 2.9 SSW 19 24 10 13 1019.1 1019.0 1.6
22/08:00am 15.8 11.3 10.1 69 3.0 SW 24 32 13 17 1018.7 1018.6 1.6
22/07:30am 15.4 11.4 10.6 73 2.5 SW 22 30 12 16 1018.3 1018.2 1.6
22/07:00am 15.1 11.9 11.9 81 1.7 SSW 20 26 11 14 1018.0 1017.9 1.6
22/06:30am 14.8 10.9 12.1 84 1.5 SW 24 32 13 17 1017.9 1017.8 1.6
22/06:00am 14.7 10.7 12.9 89 1.0 SSW 26 35 14 19 1017.5 1017.4 1.6
22/05:30am 14.6 11.0 13.1 91 0.8 SW 24 32 13 17 1017.2 1017.1 1.6
22/05:00am 14.2 12.2 13.9 98 0.2 SSW 17 26 9 14 1017.0 1016.9 1.6
22/04:30am 13.8 10.8 13.6 99 0.1 SW 22 41 12 22 1016.9 1016.8 1.6
22/04:00am 14.2 11.6 13.9 98 0.2 SW 20 28 11 15 1016.8 1016.7 1.2
22/03:30am 14.0 11.5 14.0 100 0.0 SW 20 35 11 19 1016.7 1016.6 1.2
22/03:00am 14.5 11.3 14.3 99 0.1 WSW 24 41 13 22 1016.8 1016.7 0.6
22/02:30am 15.3 10.7 14.7 96 0.3 WSW 32 44 17 24 1016.9 1016.8 0.4
22/02:00am 16.1 13.1 12.5 79 2.0 W 20 26 11 14 1017.1 1017.0 0.2
22/01:30am 15.9 13.0 12.3 79 2.0 W 19 24 10 13 1017.2 1017.1 0.2
22/01:00am 15.1 12.7 11.3 78 2.0 W 15 22 8 12 1017.3 1017.2 0.2
22/12:30am 15.4 12.0 11.2 76 2.2 WSW 20 26 11 14 1017.5 1017.4 0.2
22/12:00am 15.6 11.4 11.2 75 2.4 WSW 24 32 13 17 1017.7 1017.6 0.2
 
Date/Time
CST
Temp
°C
App
Temp
°C
Dew
Point
°C
Rel
Hum
%
Delta-T
°C
Wind Press
QNH
hPa
Press
MSL
hPa
Rain since
9am
mm
Dir  Spd
km/h
Gust
km/h
Spd
kts
Gust
kts
21/11:30pm 15.5 11.9 11.9 79 2.0 WSW 22 32 12 17 1017.8 1017.7 0.2
21/11:00pm 15.1 11.6 12.1 82 1.6 WSW 22 30 12 16 1018.0 1017.9 0.2
21/10:30pm 14.8 12.2 13.3 91 0.8 WSW 19 26 10 14 1018.2 1018.1 0.2
21/10:00pm 14.6 13.4 14.1 97 0.3 WNW 13 28 7 15 1018.3 1018.2 0.2
21/09:30pm 14.2 13.2 13.4 95 0.4 NNW 11 13 6 7 1018.4 1018.3 0.0
21/09:00pm 14.6 13.7 13.6 94 0.6 NW 11 17 6 9 1018.5 1018.4 0.0
21/08:30pm 14.5 13.2 13.7 95 0.4 NW 13 17 7 9 1018.5 1018.4 0.0
21/08:00pm 14.3 13.2 13.2 93 0.6 NW 11 15 6 8 1018.3 1018.2 0.0
21/07:30pm 14.4 12.6 13.4 94 0.6 NW 15 19 8 10 1018.3 1018.2 0.0
21/07:00pm 14.7 11.9 12.7 88 1.1 W 19 24 10 13 1018.2 1018.1 0.0
21/06:30pm 15.0 12.9 12.3 84 1.5 WSW 15 20 8 11 1018.1 1018.0 0.0
21/06:00pm 14.6 12.2 12.8 89 1.0 SW 17 22 9 12 1017.7 1017.6 0.0
21/05:30pm 15.5 13.0 11.1 75 2.3 W 15 24 8 13 1017.6 1017.5 0.0
21/05:00pm 16.3 14.2 9.7 65 3.4 WNW 11 17 6 9 1017.2 1017.1 0.0
21/04:30pm 16.9 14.8 9.6 62 3.8 WNW 11 15 6 8 1017.0 1016.9 0.0
21/04:00pm 17.3 14.5 8.7 57 4.4 W 13 19 7 10 1017.1 1017.0 0.0
21/03:30pm 18.5 15.8 9.0 54 5.0 WSW 13 19 7 10 1017.2 1017.1 0.0
21/03:00pm 18.0 14.8 8.6 54 4.9 WSW 15 20 8 11 1017.2 1017.1 0.0
21/02:30pm 18.3 14.1 8.3 52 5.1 WSW 20 28 11 15 1017.4 1017.3 0.0
21/02:00pm 17.9 14.2 10.0 60 4.2 WSW 20 28 11 15 1017.4 1017.3 0.0
21/01:30pm 17.7 14.6 11.7 68 3.3 WNW 19 22 10 12 1017.7 1017.6 0.0
21/01:00pm 18.1 14.9 11.9 67 3.4 WNW 20 26 11 14 1017.9 1017.8 0.0
21/12:30pm 17.9 14.4 11.0 64 3.7 WNW 20 28 11 15 1018.2 1018.1 0.0
21/12:00pm 17.7 15.1 10.6 63 3.8 NW 15 20 8 11 1018.5 1018.4 0.0
21/11:30am 16.9 14.2 10.5 66 3.4 NNW 15 20 8 11 1018.8 1018.7 0.0
21/11:00am 15.9 13.0 9.6 66 3.3 NNW 15 19 8 10 1019.1 1019.0 0.0
21/10:30am 15.6 12.6 9.3 66 3.2 NNW 15 19 8 10 1019.4 1019.3 0.0
21/10:00am 15.6 13.0 9.5 67 3.2 N 13 19 7 10 1019.4 1019.3 0.0
21/09:30am 14.5 13.1 9.5 72 2.6 NNE 7 9 4 5 1019.7 1019.6 0.0
21/09:00am 13.3 12.1 9.4 77 2.0 NE 6 9 3 5 1019.7 1019.6 0.2
21/08:30am 12.2 10.8 9.0 81 1.6 NE 6 13 3 7 1019.8 1019.7 0.2
21/08:00am 11.1 9.6 8.5 84 1.3 NE 6 9 3 5 1019.7 1019.6 0.2
21/07:30am 11.2 9.1 8.4 83 1.4 NE 9 13 5 7 1019.2 1019.1 0.2
21/07:00am 9.8 7.2 7.6 86 1.1 ENE 11 13 6 7 1019.2 1019.1 0.2
21/06:30am 10.0 7.9 6.5 79 1.6 ENE 7 9 4 5 1019.1 1019.0 0.2
21/06:00am 10.3 8.2 6.6 78 1.7 ENE 7 9 4 5 1019.1 1019.0 0.2
21/05:30am 10.0 7.7 7.6 85 1.1 NE 9 9 5 5 1019.0 1018.9 0.2
21/05:00am 10.6 9.2 8.7 88 0.9 NE 6 7 3 4 1019.0 1018.9 0.2
21/04:30am 11.4 10.1 9.3 87 1.1 NE 6 7 3 4 1019.2 1019.1 0.2
21/04:00am 11.5 10.2 9.1 85 1.2 NE 6 7 3 4 1019.1 1019.0 0.2
21/03:30am 11.4 10.1 9.1 86 1.1 NE 6 7 3 4 1019.1 1019.0 0.2
21/03:00am 11.2 9.7 8.4 83 1.4 NE 6 7 3 4 1019.3 1019.2 0.2
21/02:30am 10.9 9.2 7.4 79 1.7 NE 6 7 3 4 1019.6 1019.5 0.2
21/02:00am 11.1 8.6 6.5 73 2.2 ENE 9 9 5 5 1019.7 1019.6 0.2
21/01:30am 11.0 8.5 6.6 74 2.1 ENE 9 9 5 5 1019.8 1019.7 0.2
21/01:00am 10.2 7.7 6.5 78 1.7 ENE 9 11 5 6 1019.9 1019.8 0.2
21/12:30am 10.3 7.8 6.5 77 1.8 ENE 9 11 5 6 1020.0 1019.9 0.2
21/12:00am 10.1 7.6 6.4 78 1.7 ENE 9 11 5 6 1020.1 1020.0 0.2
 
Date/Time
CST
Temp
°C
App
Temp
°C
Dew
Point
°C
Rel
Hum
%
Delta-T
°C
Wind Press
QNH
hPa
Press
MSL
hPa
Rain since
9am
mm
Dir  Spd
km/h
Gust
km/h
Spd
kts
Gust
kts
20/11:30pm 10.0 7.1 6.5 79 1.6 E 11 11 6 6 1020.3 1020.2 0.2

Other formats

Comma delimited format used in spreadsheet applications
http://www.bom.gov.au/fwo/IDS60801/IDS60801.95649.axf

JavaScript Object Notation format (JSON) in row-major order
http://www.bom.gov.au/fwo/IDS60801/IDS60801.95649.json

Data quality

Most of these data are generated automatically and are frequently updated. Quality checks on data are not normally performed. It is possible for incorrect values to appear. Refer to information at About Latest Weather Observations and please check the disclaimer before using these data.